Time,TemperatureF,DewpointF,PressureIn,WindDirection,WindDirectionDegrees,WindSpeedMPH,WindSpeedGustMPH,Humidity,HourlyPrecipIn,Conditions,Clouds,dailyrainin,SolarRadiationWatts/m^2,SoftwareType,DateUTC
2013-06-20 00:02:00,71.0,58.0,-100.00,ENE,67,11.0,18.0,64,0.00,,,0.40,0.000000,,2013-06-20 04:02:00,
2013-06-20 00:12:00,71.0,58.0,-100.00,ENE,67,11.0,18.0,64,0.00,,,0.40,0.000000,,2013-06-20 04:12:00,
2013-06-20 00:23:00,71.0,58.0,-100.00,ENE,67,11.0,18.0,64,0.00,,,0.40,0.000000,,2013-06-20 04:23:00,
2013-06-20 00:54:00,71.0,59.0,-100.00,NE,48,6.0,17.0,65,0.00,,,0.38,0.000000,,2013-06-20 04:54:00,
2013-06-20 01:02:00,71.0,59.0,-100.00,NE,48,6.0,17.0,65,0.00,,,0.38,0.000000,,2013-06-20 05:02:00,
2013-06-20 01:12:00,71.0,59.0,-100.00,NE,48,6.0,17.0,65,0.00,,,0.38,0.000000,,2013-06-20 05:12:00,
2013-06-20 01:22:00,71.0,59.0,-100.00,NE,48,6.0,17.0,65,0.00,,,0.38,0.000000,,2013-06-20 05:22:00,
2013-06-20 01:53:00,71.0,59.0,-100.00,NE,53,5.0,16.0,65,0.00,,,0.32,0.000000,,2013-06-20 05:53:00,
2013-06-20 02:02:00,71.0,59.0,-100.00,NE,53,5.0,16.0,65,0.00,,,0.32,0.000000,,2013-06-20 06:02:00,
2013-06-20 02:11:00,71.0,59.0,-100.00,NE,53,5.0,16.0,65,0.00,,,0.32,0.000000,,2013-06-20 06:11:00,
2013-06-20 02:22:00,71.0,59.0,-100.00,NE,53,5.0,16.0,65,0.00,,,0.32,0.000000,,2013-06-20 06:22:00,
2013-06-20 02:53:00,71.0,59.0,-100.00,NE,56,6.0,17.0,65,0.00,,,0.14,0.000000,,2013-06-20 06:53:00,
2013-06-20 03:01:00,71.0,59.0,-100.00,NE,56,6.0,17.0,65,0.00,,,0.14,0.000000,,2013-06-20 07:01:00,
2013-06-20 03:12:00,71.0,59.0,-100.00,NE,56,6.0,17.0,65,0.00,,,0.14,0.000000,,2013-06-20 07:12:00,
2013-06-20 03:53:00,72.0,60.0,-100.00,NE,39,5.0,13.0,65,0.00,,,0.10,0.000000,,2013-06-20 07:53:00,
2013-06-20 04:02:00,72.0,60.0,-100.00,NE,39,5.0,13.0,65,0.00,,,0.10,0.000000,,2013-06-20 08:02:00,
2013-06-20 04:11:00,72.0,60.0,-100.00,NE,39,5.0,13.0,65,0.00,,,0.10,0.000000,,2013-06-20 08:11:00,
2013-06-20 04:22:00,72.0,60.0,-100.00,NE,39,5.0,13.0,65,0.00,,,0.10,0.000000,,2013-06-20 08:22:00,
2013-06-20 04:53:00,72.0,60.0,-100.00,NNE,30,6.0,13.0,65,0.00,,,0.07,0.000000,,2013-06-20 08:53:00,
2013-06-20 05:02:00,72.0,60.0,-100.00,NNE,30,6.0,13.0,65,0.00,,,0.07,0.000000,,2013-06-20 09:02:00,
2013-06-20 05:12:00,72.0,60.0,-100.00,NNE,30,6.0,13.0,65,0.00,,,0.07,0.000000,,2013-06-20 09:12:00,
2013-06-20 05:22:00,72.0,60.0,-100.00,NNE,30,6.0,13.0,65,0.00,,,0.07,0.000000,,2013-06-20 09:22:00,
2013-06-20 05:52:00,72.0,60.0,-100.00,NNE,33,5.0,13.0,65,0.00,,,0.07,0.000000,,2013-06-20 09:52:00,
2013-06-20 06:02:00,72.0,60.0,-100.00,NNE,33,5.0,13.0,65,0.00,,,0.07,0.000000,,2013-06-20 10:02:00,
2013-06-20 06:11:00,72.0,60.0,-100.00,NNE,33,5.0,13.0,65,0.00,,,0.07,0.000000,,2013-06-20 10:11:00,
2013-06-20 06:22:00,72.0,60.0,-100.00,NNE,33,5.0,13.0,65,0.00,,,0.07,0.000000,,2013-06-20 10:22:00,
2013-06-20 06:53:00,72.0,60.0,-100.00,NNE,29,7.0,11.0,66,0.00,,,0.07,4.000000,,2013-06-20 10:53:00,
2013-06-20 07:02:00,72.0,60.0,-100.00,NNE,29,7.0,11.0,66,0.00,,,0.07,4.000000,,2013-06-20 11:02:00,
2013-06-20 07:12:00,72.0,60.0,-100.00,NNE,29,7.0,11.0,66,0.00,,,0.07,4.000000,,2013-06-20 11:12:00,
2013-06-20 07:22:00,72.0,60.0,-100.00,NNE,29,7.0,11.0,66,0.00,,,0.07,4.000000,,2013-06-20 11:22:00,
2013-06-20 07:53:00,72.0,60.0,-100.00,NE,38,5.0,16.0,65,0.00,,,0.07,42.000000,,2013-06-20 11:53:00,
2013-06-20 08:02:00,72.0,60.0,-100.00,NE,38,5.0,16.0,65,0.00,,,0.07,42.000000,,2013-06-20 12:02:00,
2013-06-20 08:12:00,72.0,60.0,-100.00,NE,38,5.0,16.0,65,0.00,,,0.07,42.000000,,2013-06-20 12:12:00,
2013-06-20 08:22:00,72.0,60.0,-100.00,NE,38,5.0,16.0,65,0.00,,,0.07,42.000000,,2013-06-20 12:22:00,
2013-06-20 08:53:00,73.0,60.0,-100.00,ENE,59,6.0,19.0,64,0.00,,,0.04,116.000000,,2013-06-20 12:53:00,
2013-06-20 09:02:00,73.0,60.0,-100.00,ENE,59,6.0,19.0,64,0.00,,,0.04,116.000000,,2013-06-20 13:02:00,
2013-06-20 09:12:00,73.0,60.0,-100.00,ENE,59,6.0,19.0,64,0.00,,,0.04,116.000000,,2013-06-20 13:12:00,
2013-06-20 09:22:00,73.0,60.0,-100.00,ENE,59,6.0,19.0,64,0.00,,,0.04,116.000000,,2013-06-20 13:22:00,
2013-06-20 09:53:00,73.0,60.0,-100.00,NE,50,5.0,15.0,63,0.00,,,0.04,177.000000,,2013-06-20 13:53:00,
2013-06-20 10:02:00,73.0,60.0,-100.00,NE,50,5.0,15.0,63,0.00,,,0.04,177.000000,,2013-06-20 14:02:00,
2013-06-20 10:11:00,73.0,60.0,-100.00,NE,50,5.0,15.0,63,0.00,,,0.04,177.000000,,2013-06-20 14:11:00,
2013-06-20 10:53:00,78.0,63.0,-100.00,NE,43,5.0,14.0,60,0.00,,,0.02,631.000000,,2013-06-20 14:53:00,
2013-06-20 11:02:00,78.0,63.0,-100.00,NE,43,5.0,14.0,60,0.00,,,0.02,631.000000,,2013-06-20 15:02:00,
2013-06-20 11:11:00,78.0,63.0,-100.00,NE,43,5.0,14.0,60,0.00,,,0.02,631.000000,,2013-06-20 15:11:00,
2013-06-20 11:22:00,78.0,63.0,-100.00,NE,43,5.0,14.0,60,0.00,,,0.02,631.000000,,2013-06-20 15:22:00,
2013-06-20 11:53:00,77.0,62.0,-100.00,ENE,65,6.0,14.0,60,0.00,,,0.02,846.000000,,2013-06-20 15:53:00,
2013-06-20 12:02:00,77.0,62.0,-100.00,ENE,65,6.0,14.0,60,0.00,,,0.02,846.000000,,2013-06-20 16:02:00,
2013-06-20 12:12:00,77.0,62.0,-100.00,ENE,65,6.0,14.0,60,0.00,,,0.02,846.000000,,2013-06-20 16:12:00,
2013-06-20 12:22:00,77.0,62.0,-100.00,ENE,65,6.0,14.0,60,0.00,,,0.02,846.000000,,2013-06-20 16:22:00,
2013-06-20 12:53:00,77.0,62.0,-100.00,ENE,62,6.0,15.0,59,0.00,,,0.02,938.000000,,2013-06-20 16:53:00,
2013-06-20 13:02:00,77.0,62.0,-100.00,ENE,62,6.0,15.0,59,0.00,,,0.02,938.000000,,2013-06-20 17:02:00,
2013-06-20 13:12:00,77.0,62.0,-100.00,ENE,62,6.0,15.0,59,0.00,,,0.02,938.000000,,2013-06-20 17:12:00,
2013-06-20 13:22:00,77.0,62.0,-100.00,ENE,62,6.0,15.0,59,0.00,,,0.02,938.000000,,2013-06-20 17:22:00,
2013-06-20 13:53:00,78.0,61.0,-100.00,NNE,33,6.0,14.0,56,0.00,,,0.00,967.000000,,2013-06-20 17:53:00,
2013-06-20 14:01:00,78.0,61.0,-100.00,NNE,33,6.0,14.0,56,0.00,,,0.00,967.000000,,2013-06-20 18:01:00,
2013-06-20 14:12:00,78.0,61.0,-100.00,NNE,33,6.0,14.0,56,0.00,,,0.00,967.000000,,2013-06-20 18:12:00,
2013-06-20 14:22:00,78.0,61.0,-100.00,NNE,33,6.0,14.0,56,0.00,,,0.00,967.000000,,2013-06-20 18:22:00,
2013-06-20 14:53:00,78.0,61.0,-100.00,NE,47,6.0,16.0,56,0.00,,,0.00,832.000000,,2013-06-20 18:53:00,
2013-06-20 15:02:00,78.0,61.0,-100.00,NE,47,6.0,16.0,56,0.00,,,0.00,832.000000,,2013-06-20 19:02:00,
2013-06-20 15:11:00,78.0,61.0,-100.00,NE,47,6.0,16.0,56,0.00,,,0.00,832.000000,,2013-06-20 19:11:00,
2013-06-20 15:22:00,78.0,61.0,-100.00,NE,47,6.0,16.0,56,0.00,,,0.00,832.000000,,2013-06-20 19:22:00,
2013-06-20 15:52:00,78.0,58.0,-100.00,NE,39,5.0,13.0,51,0.00,,,0.00,216.000000,,2013-06-20 19:52:00,
2013-06-20 16:02:00,78.0,58.0,-100.00,NE,39,5.0,13.0,51,0.00,,,0.00,216.000000,,2013-06-20 20:02:00,
2013-06-20 16:11:00,78.0,58.0,-100.00,NE,39,5.0,13.0,51,0.00,,,0.00,216.000000,,2013-06-20 20:11:00,
2013-06-20 16:22:00,78.0,58.0,-100.00,NE,39,5.0,13.0,51,0.00,,,0.00,216.000000,,2013-06-20 20:22:00,
2013-06-20 16:53:00,78.0,61.0,-100.00,NE,49,5.0,14.0,56,0.00,,,0.00,757.000000,,2013-06-20 20:53:00,
2013-06-20 17:01:00,78.0,61.0,-100.00,NE,49,5.0,14.0,56,0.00,,,0.00,757.000000,,2013-06-20 21:01:00,